createdAt,value
2023-01-21T00:00:28.920Z,1.9
2023-01-21T00:05:36.644Z,1.9
2023-01-21T00:10:59.136Z,1.8
2023-01-21T00:15:50.632Z,1.8
2023-01-21T00:21:13.041Z,1.8
2023-01-21T00:26:35.259Z,1.8
2023-01-21T00:32:00.307Z,1.8
2023-01-21T00:37:22.979Z,1.8
2023-01-21T00:42:45.167Z,1.9
2023-01-21T00:52:59.631Z,1.9
2023-01-21T00:58:07.821Z,1.9
2023-01-21T01:03:15.356Z,1.8
2023-01-21T01:08:38.132Z,1.8
2023-01-21T01:14:01.421Z,1.9
2023-01-21T01:19:08.127Z,1.9
2023-01-21T01:24:31.205Z,1.9
2023-01-21T01:29:54.501Z,1.8
2023-01-21T01:35:17.167Z,1.9
2023-01-21T01:40:24.604Z,1.9
2023-01-21T01:45:47.120Z,1.8
2023-01-21T01:50:54.854Z,1.8
2023-01-21T01:56:17.725Z,1.8
2023-01-21T02:01:40.688Z,1.8
2023-01-21T02:07:03.646Z,1.8
2023-01-21T02:12:25.857Z,1.8
2023-01-21T02:17:48.462Z,1.8
2023-01-21T02:23:10.976Z,1.7
2023-01-21T02:28:21.846Z,1.7
2023-01-21T02:33:45.698Z,1.7
2023-01-21T02:38:52.002Z,1.6
2023-01-21T02:44:15.279Z,1.6
2023-01-21T02:49:38.585Z,1.6
2023-01-21T02:55:01.769Z,1.6
2023-01-21T02:59:53.746Z,1.6
2023-01-21T03:05:16.380Z,1.6
2023-01-21T03:15:45.753Z,1.6
2023-01-21T03:21:09.218Z,1.6
2023-01-21T03:26:31.153Z,1.6
2023-01-21T03:31:54.381Z,1.5
2023-01-21T03:37:17.494Z,1.4
2023-01-21T03:42:24.141Z,1.3
2023-01-21T03:47:31.478Z,1.2
2023-01-21T03:52:38.899Z,1.1
2023-01-21T03:58:01.178Z,0.9
2023-01-21T04:03:08.637Z,0.8
2023-01-21T04:08:15.880Z,0.7
2023-01-21T04:13:38.839Z,0.7
2023-01-21T04:18:50.065Z,0.8
2023-01-21T04:23:58.020Z,0.7
2023-01-21T04:29:23.426Z,0.6
2023-01-21T04:34:45.524Z,0.6
2023-01-21T04:40:08.038Z,0.6
2023-01-21T04:45:30.966Z,0.5
2023-01-21T04:50:53.323Z,0.6
2023-01-21T04:56:17.015Z,0.6
2023-01-21T05:06:31.505Z,0.7
2023-01-21T05:11:55.301Z,0.7
2023-01-21T05:17:17.919Z,0.7
2023-01-21T05:22:25.338Z,0.6
2023-01-21T05:27:48.104Z,0.5
2023-01-21T05:33:11.352Z,0.4
2023-01-21T05:38:03.016Z,0.4
2023-01-21T05:43:26.428Z,0.4
2023-01-21T05:48:50.922Z,0.4
2023-01-21T05:54:14.030Z,0.3
2023-01-21T05:59:35.909Z,0.3
2023-01-21T06:04:42.869Z,0.3
2023-01-21T06:10:05.669Z,0.3
2023-01-21T06:15:28.742Z,0.3
2023-01-21T06:20:36.307Z,0.4
2023-01-21T06:25:59.180Z,0.4
2023-01-21T06:31:06.647Z,0.7
2023-01-21T06:36:15.175Z,0.7
2023-01-21T06:41:37.998Z,0.9
2023-01-21T06:47:12.312Z,1.1
2023-01-21T06:52:19.640Z,1.4
2023-01-21T06:57:42.678Z,1.8
2023-01-21T07:03:05.206Z,1.8
2023-01-21T07:08:12.913Z,2
2023-01-21T07:13:20.521Z,2.2
2023-01-21T07:18:44.414Z,2.6
2023-01-21T07:23:51.370Z,2.8
2023-01-21T07:29:17.474Z,2.9
2023-01-21T07:34:40.532Z,3.6
2023-01-21T07:40:02.545Z,3.3
2023-01-21T07:45:24.792Z,4.3
2023-01-21T07:50:50.121Z,4.9
2023-01-21T07:56:12.581Z,5.1
2023-01-21T08:01:35.240Z,6.1
2023-01-21T08:06:58.428Z,6.5
2023-01-21T08:12:20.733Z,6.4
2023-01-21T08:17:43.893Z,7.1
2023-01-21T08:23:06.534Z,7.2
2023-01-21T08:28:29.145Z,7.8
2023-01-21T08:33:52.007Z,7.6
2023-01-21T08:39:15.168Z,7.1
2023-01-21T08:44:37.639Z,7.6
2023-01-21T08:50:01.136Z,7.1
2023-01-21T08:55:08.572Z,7.8
2023-01-21T09:00:31.134Z,8.1
2023-01-21T09:05:39.270Z,7.5
2023-01-21T09:11:01.907Z,7.8
2023-01-21T09:16:25.109Z,7.8
2023-01-21T09:21:48.250Z,7.5
2023-01-21T09:27:10.841Z,7.9
2023-01-21T09:32:34.291Z,8.1
2023-01-21T09:37:13.343Z,7.9
2023-01-21T09:42:36.350Z,7.9
2023-01-21T09:47:59.701Z,8.4
2023-01-21T09:53:22.402Z,8.6
2023-01-21T09:58:45.346Z,8.4
2023-01-21T10:04:10.198Z,8.6
2023-01-21T10:09:33.444Z,8.6
2023-01-21T10:14:56.447Z,9
2023-01-21T10:20:19.456Z,9.4
2023-01-21T10:25:44.523Z,9.9
2023-01-21T10:31:07.879Z,8.7
2023-01-21T10:35:59.697Z,9
2023-01-21T10:41:24.502Z,9.4
2023-01-21T10:46:48.560Z,9.6
2023-01-21T10:52:13.159Z,9.7
2023-01-21T10:57:36.516Z,9.6
2023-01-21T11:03:01.114Z,10.6
2023-01-21T11:08:08.606Z,11.1
2023-01-21T11:13:31.658Z,11.3
2023-01-21T11:18:55.392Z,10.6
2023-01-21T11:24:20.511Z,10.5
2023-01-21T11:29:12.155Z,11.8
2023-01-21T11:34:43.828Z,11.7
2023-01-21T11:40:06.432Z,10.9
2023-01-21T11:45:29.527Z,10.8
2023-01-21T11:50:53.299Z,10.6
2023-01-21T11:56:15.966Z,11.3
2023-01-21T12:01:38.345Z,10.8
2023-01-21T12:07:01.614Z,10.9
2023-01-21T12:12:26.266Z,10.9
2023-01-21T12:17:48.841Z,10.9
2023-01-21T12:23:12.515Z,10.8
2023-01-21T12:28:19.383Z,11.1
2023-01-21T12:33:42.721Z,11.3
2023-01-21T12:39:05.790Z,11.1
2023-01-21T12:44:28.785Z,11.3
2023-01-21T12:49:52.844Z,11.4
2023-01-21T12:55:16.460Z,11.3
2023-01-21T13:00:40.375Z,10.8
2023-01-21T13:06:03.514Z,10.3
2023-01-21T13:11:29.733Z,10.1
2023-01-21T13:16:37.050Z,9.6
2023-01-21T13:21:45.107Z,9.6
2023-01-21T13:27:07.943Z,9.3
2023-01-21T13:32:32.518Z,9.3
2023-01-21T13:37:55.148Z,9.1
2023-01-21T13:43:18.067Z,9.1
2023-01-21T13:48:41.151Z,9.1
2023-01-21T13:54:03.434Z,9.2
2023-01-21T13:59:26.283Z,9.2
2023-01-21T14:04:36.099Z,9.1
2023-01-21T14:09:58.147Z,9.1
2023-01-21T14:15:21.548Z,8.9
2023-01-21T14:20:28.953Z,8.8
2023-01-21T14:25:51.142Z,8.7
2023-01-21T14:31:15.902Z,8.6
2023-01-21T14:36:38.845Z,8.7
2023-01-21T14:42:02.369Z,8.7
2023-01-21T14:47:27.481Z,8.6
2023-01-21T14:52:50.464Z,8.5
2023-01-21T14:58:25.441Z,8.4
2023-01-21T15:03:49.939Z,8.4
2023-01-21T15:09:15.647Z,8.4
2023-01-21T15:14:39.447Z,8.3
2023-01-21T15:20:03.204Z,8.3
2023-01-21T15:25:28.202Z,8.3
2023-01-21T15:30:58.458Z,8.3
2023-01-21T15:36:23.350Z,8.2
2023-01-21T15:41:45.767Z,8.2
2023-01-21T15:47:09.812Z,8.2
2023-01-21T15:52:42.591Z,8.1
2023-01-21T15:58:05.244Z,8.1
2023-01-21T16:03:30.887Z,8.1
2023-01-21T16:08:53.819Z,8
2023-01-21T16:14:16.793Z,8
2023-01-21T16:19:40.454Z,7.9
2023-01-21T16:25:05.610Z,7.9
2023-01-21T16:30:00.367Z,7.9
2023-01-21T16:35:09.215Z,7.9
2023-01-21T16:40:32.620Z,8
2023-01-21T16:45:54.507Z,8
2023-01-21T16:51:02.052Z,8.1
2023-01-21T16:56:25.981Z,8
2023-01-21T17:01:49.560Z,7.8
2023-01-21T17:07:12.596Z,7.9
2023-01-21T17:12:20.599Z,7.9
2023-01-21T17:17:44.020Z,8.1
2023-01-21T17:23:09.007Z,8
2023-01-21T17:28:32.924Z,7.8
2023-01-21T17:33:41.519Z,7.8
2023-01-21T17:38:51.619Z,7.9
2023-01-21T17:44:15.901Z,7.9
2023-01-21T17:50:02.998Z,7.8
2023-01-21T17:55:30.607Z,7.7
2023-01-21T18:00:57.843Z,7.6
2023-01-21T18:06:11.392Z,7.6
2023-01-21T18:11:25.061Z,7.7
2023-01-21T18:16:55.977Z,7.7
2023-01-21T18:22:22.674Z,7.7
2023-01-21T18:27:48.876Z,7.7
2023-01-21T18:33:16.441Z,7.6
2023-01-21T18:38:28.453Z,7.6
2023-01-21T18:43:38.960Z,7.6
2023-01-21T18:49:06.638Z,7.3
2023-01-21T18:54:31.963Z,7
2023-01-21T18:59:57.503Z,6.9
2023-01-21T19:05:26.038Z,6.7
2023-01-21T19:10:53.838Z,6.5
2023-01-21T19:16:23.351Z,6.4
2023-01-21T19:21:56.031Z,6.3
2023-01-21T19:27:27.564Z,6.1
2023-01-21T19:32:59.581Z,6.1
2023-01-21T19:38:31.741Z,6.2
2023-01-21T19:43:57.592Z,6.1
2023-01-21T19:49:30.617Z,6.1
2023-01-21T19:54:47.072Z,6.1
2023-01-21T20:00:21.333Z,6
2023-01-21T20:06:03.833Z,6.2
2023-01-21T20:11:18.332Z,6.3
2023-01-21T20:16:47.867Z,6.2
2023-01-21T20:22:32.846Z,6.1
2023-01-21T20:28:02.189Z,6.1
2023-01-21T20:33:46.344Z,6.2
2023-01-21T20:39:10.989Z,6.2
2023-01-21T20:44:35.136Z,6.1
2023-01-21T20:49:56.325Z,6.1
2023-01-21T20:55:21.195Z,6.1
2023-01-21T21:00:46.886Z,5.9
2023-01-21T21:05:58.331Z,6
2023-01-21T21:11:24.582Z,6.1
2023-01-21T21:16:32.771Z,6.1
2023-01-21T21:21:57.017Z,6.1
2023-01-21T21:27:05.176Z,6.1
2023-01-21T21:32:29.243Z,6.1
2023-01-21T21:37:52.829Z,6.1
2023-01-21T21:43:15.925Z,5.9
2023-01-21T21:48:39.365Z,5.9
2023-01-21T21:53:47.503Z,5.9
2023-01-21T21:59:10.039Z,6
2023-01-21T22:04:33.355Z,5.9
2023-01-21T22:09:55.888Z,5.8
2023-01-21T22:15:19.169Z,5.6
2023-01-21T22:20:44.481Z,5.5
2023-01-21T22:26:06.857Z,5.4
2023-01-21T22:31:30.462Z,5.3
2023-01-21T22:36:53.885Z,5.2
2023-01-21T22:42:16.636Z,5.3
2023-01-21T22:47:40.598Z,5.3
2023-01-21T22:52:47.530Z,5.3
2023-01-21T22:58:02.218Z,5.3
2023-01-21T23:03:24.625Z,5.4
2023-01-21T23:08:47.716Z,5.6
2023-01-21T23:14:11.996Z,5.1
2023-01-21T23:19:03.823Z,5.4
2023-01-21T23:24:26.869Z,5.5
2023-01-21T23:29:49.771Z,5.6
2023-01-21T23:34:42.156Z,5.7
2023-01-21T23:40:07.514Z,5.8
2023-01-21T23:45:29.489Z,5.9
2023-01-21T23:50:53.007Z,5.8
2023-01-21T23:56:15.570Z,5.8
